Time;durP1;ratioP1;P1;durP2;ratioP2;P2;SDS_P1;SDS_P2;PMS_P1;PMS_P2;Temp;Humidity;BMP_temperature;BMP_pressure;BME280_temperature;BME280_humidity;BME280_pressure;Samples;Min_cycle;Max_cycle;Signal;HPM_P1;HPM_P2
2022/05/24 00:02:03;;;;;;;6.78;5.10;;;13.80;99.90;;;;;;5043872;28;20036;-77
2022/05/24 00:04:28;;;;;;;7.30;4.22;;;14.00;99.90;;;;;;5039441;28;20052;-77
2022/05/24 00:06:54;;;;;;;6.50;4.18;;;13.80;99.90;;;;;;5038077;28;20040;-77
2022/05/24 00:09:19;;;;;;;6.53;4.18;;;13.90;99.90;;;;;;5053903;28;20088;-77
2022/05/24 00:11:45;;;;;;;8.85;4.38;;;13.90;99.90;;;;;;5040552;28;20041;-77
2022/05/24 00:14:11;;;;;;;9.13;4.32;;;13.80;99.90;;;;;;5042298;28;20487;-77
2022/05/24 00:16:36;;;;;;;10.20;3.92;;;13.70;99.90;;;;;;5038198;28;20044;-77
2022/05/24 00:19:02;;;;;;;5.70;3.72;;;;;;;;;;5049325;28;20258;-77
2022/05/24 00:21:28;;;;;;;4.50;3.83;;;13.90;99.90;;;;;;5057437;28;20046;-77
2022/05/24 00:23:54;;;;;;;8.35;3.90;;;13.70;99.90;;;;;;5058258;28;20116;-77
2022/05/24 00:26:30;;;;;;;7.13;3.85;;;13.50;99.90;;;;;;5041034;28;20425;-77
2022/05/24 00:28:59;;;;;;;4.80;3.67;;;;;;;;;;5056994;28;20040;-77
2022/05/24 00:31:25;;;;;;;9.13;5.45;;;;;;;;;;5044583;28;20064;-77
2022/05/24 00:33:50;;;;;;;6.18;4.45;;;13.40;99.90;;;;;;5020247;28;20633;-76
2022/05/24 00:36:17;;;;;;;6.15;4.53;;;13.30;99.90;;;;;;5073747;23;20041;-71
2022/05/24 00:38:42;;;;;;;6.13;4.60;;;13.50;99.90;;;;;;5038289;28;20075;-69
2022/05/24 00:41:31;;;;;;;7.95;5.35;;;13.70;99.90;;;;;;5062365;28;20068;-69
2022/05/24 00:44:35;;;;;;;10.15;5.13;;;13.30;99.90;;;;;;5061655;28;20055;-69
2022/05/24 00:47:05;;;;;;;11.40;5.32;;;13.40;99.90;;;;;;5023141;28;20053;-69
2022/05/24 00:49:37;;;;;;;10.88;5.72;;;13.80;99.90;;;;;;5039315;28;20514;-69
2022/05/24 00:52:20;;;;;;;15.38;6.22;;;13.30;99.90;;;;;;5033759;28;20033;-70
2022/05/24 00:54:46;;;;;;;10.43;5.78;;;13.40;99.90;;;;;;5041974;28;20510;-69
2022/05/24 00:57:27;;;;;;;8.82;5.70;;;13.20;99.90;;;;;;5034366;28;20076;-69
2022/05/24 01:00:01;;;;;;;8.90;5.70;;;13.30;99.90;;;;;;5039375;28;20087;-69
2022/05/24 01:02:26;;;;;;;8.90;5.72;;;13.40;99.90;;;;;;5037859;28;20116;-69
2022/05/24 01:04:52;;;;;;;8.05;5.38;;;13.50;99.90;;;;;;5043599;28;20505;-69
2022/05/24 01:07:18;;;;;;;6.88;4.90;;;13.40;99.90;;;;;;5042246;28;20518;-69
2022/05/24 01:10:09;;;;;;;9.10;6.05;;;13.20;99.90;;;;;;5038556;28;20102;-69
2022/05/24 01:12:40;;;;;;;8.13;5.60;;;13.30;99.90;;;;;;5040605;28;20044;-69
2022/05/24 01:15:08;;;;;;;6.63;4.85;;;13.30;99.90;;;;;;5035480;28;20041;-69
2022/05/24 01:17:35;;;;;;;7.25;5.65;;;13.40;99.90;;;;;;5042248;28;20037;-70
2022/05/24 01:20:02;;;;;;;6.80;5.75;;;13.30;99.90;;;;;;5045285;28;20457;-69
2022/05/24 01:22:39;;;;;;;10.00;6.25;;;13.20;99.90;;;;;;5041608;28;20045;-69
2022/05/24 01:25:40;;;;;;;7.28;5.72;;;13.20;99.90;;;;;;5009541;28;20045;-69
2022/05/24 01:28:17;;;;;;;6.47;4.47;;;13.40;99.90;;;;;;5034890;28;20428;-69
2022/05/24 01:30:42;;;;;;;6.57;5.32;;;13.40;99.90;;;;;;5018556;28;20044;-71
2022/05/24 01:36:10;;;;;;;12.73;6.03;;;13.40;99.90;;;;;;5039887;28;20084;-71
2022/05/24 01:38:43;;;;;;;8.48;5.80;;;13.50;99.90;;;;;;5036850;28;20034;-69
2022/05/24 01:41:14;;;;;;;9.35;5.70;;;13.60;99.90;;;;;;5037055;28;20484;-69
2022/05/24 01:43:39;;;;;;;9.27;6.05;;;13.40;99.90;;;;;;5042086;28;20041;-70
2022/05/24 01:46:10;;;;;;;8.88;6.88;;;13.60;99.90;;;;;;5041102;28;20036;-72
2022/05/24 01:48:42;;;;;;;10.57;7.45;;;13.50;99.90;;;;;;5043442;28;20053;-70
2022/05/24 01:51:11;;;;;;;11.88;6.78;;;13.60;99.90;;;;;;5040298;28;20128;-71
2022/05/24 01:53:42;;;;;;;10.48;7.97;;;13.60;99.90;;;;;;5042458;28;20476;-72
2022/05/24 01:56:13;;;;;;;9.30;6.78;;;13.70;99.90;;;;;;5036361;28;20068;-72
2022/05/24 01:58:40;;;;;;;10.20;8.18;;;13.70;99.90;;;;;;5039023;28;20144;-72
2022/05/24 02:01:17;;;;;;;11.52;7.78;;;13.70;99.90;;;;;;5020530;28;20076;-73
2022/05/24 02:03:42;;;;;;;14.45;9.13;;;13.70;99.90;;;;;;5046438;28;20473;-71
2022/05/24 02:06:20;;;;;;;12.65;8.48;;;13.80;99.90;;;;;;5036773;28;20069;-73
2022/05/24 02:08:46;;;;;;;12.70;8.77;;;13.50;99.90;;;;;;5047088;28;20052;-70
2022/05/24 02:11:13;;;;;;;13.80;9.30;;;13.80;99.90;;;;;;5033408;28;20368;-69
2022/05/24 02:13:43;;;;;;;13.80;9.23;;;14.00;99.90;;;;;;5040637;28;20140;-71
2022/05/24 02:16:13;;;;;;;16.58;10.05;;;14.10;99.90;;;;;;5036527;28;20036;-70
2022/05/24 02:18:42;;;;;;;12.13;9.32;;;13.90;99.90;;;;;;5022871;28;20410;-74
2022/05/24 02:21:07;;;;;;;15.63;10.93;;;13.70;99.90;;;;;;5034415;28;20474;-69
2022/05/24 02:23:45;;;;;;;13.20;9.52;;;13.80;99.90;;;;;;5046182;28;20064;-69
2022/05/24 02:26:13;;;;;;;16.33;11.82;;;13.90;99.90;;;;;;5039008;28;20029;-69
2022/05/24 02:28:39;;;;;;;15.95;10.90;;;13.70;99.90;;;;;;5043794;28;20041;-69
2022/05/24 02:31:14;;;;;;;16.25;11.95;;;14.00;99.90;;;;;;5037027;28;20038;-69
2022/05/24 02:33:40;;;;;;;14.02;9.80;;;13.90;99.90;;;;;;5035906;28;20397;-71
2022/05/24 02:36:06;;;;;;;11.90;8.70;;;13.90;99.90;;;;;;5037169;28;20038;-70
2022/05/24 02:38:33;;;;;;;12.63;7.63;;;13.90;99.90;;;;;;5037151;28;20045;-72
2022/05/24 02:43:43;;;;;;;9.30;7.15;;;13.90;99.90;;;;;;5038494;28;20045;-69
2022/05/24 02:46:10;;;;;;;11.18;8.30;;;13.80;99.90;;;;;;5039257;28;20037;-70
2022/05/24 02:48:36;;;;;;;11.73;7.43;;;13.70;99.90;;;;;;5037053;28;20048;-69
2022/05/24 02:51:02;;;;;;;10.68;7.13;;;13.70;99.90;;;;;;5041790;28;20063;-69
2022/05/24 02:53:28;;;;;;;13.57;8.73;;;13.90;99.90;;;;;;5035286;28;20410;-71
2022/05/24 02:55:54;;;;;;;15.57;10.10;;;13.80;99.90;;;;;;5043116;28;20048;-69
2022/05/24 02:58:20;;;;;;;13.35;9.88;;;13.60;99.90;;;;;;5040744;28;20045;-70
2022/05/24 03:00:45;;;;;;;14.88;10.00;;;13.70;99.90;;;;;;5037124;28;20044;-70
2022/05/24 03:03:11;;;;;;;18.35;12.02;;;13.80;99.90;;;;;;5025013;28;20037;-69
2022/05/24 03:05:36;;;;;;;13.65;10.82;;;13.80;99.90;;;;;;5040171;28;20037;-69
2022/05/24 03:10:47;;;;;;;17.73;11.73;;;13.80;99.90;;;;;;5036815;28;20044;-69
2022/05/24 03:15:57;;;;;;;19.42;13.70;;;13.90;99.90;;;;;;5039105;28;20111;-69
2022/05/24 03:18:23;;;;;;;24.77;15.20;;;13.90;99.90;;;;;;5044817;28;20113;-69
2022/05/24 03:20:48;;;;;;;21.45;14.77;;;13.90;99.90;;;;;;5037075;28;20037;-69
2022/05/24 03:23:15;;;;;;;22.65;16.17;;;14.00;99.90;;;;;;5045187;28;20033;-69
2022/05/24 03:25:41;;;;;;;23.83;14.73;;;14.10;99.90;;;;;;5038811;28;20415;-71
2022/05/24 03:28:07;;;;;;;27.77;19.20;;;14.00;99.90;;;;;;5041767;28;20337;-72
2022/05/24 03:30:38;;;;;;;22.60;16.95;;;13.90;99.90;;;;;;5036582;28;20037;-70
2022/05/24 03:33:03;;;;;;;21.40;17.00;;;14.10;99.90;;;;;;5041573;28;20029;-69
2022/05/24 03:35:29;;;;;;;23.48;16.83;;;14.10;99.90;;;;;;5015609;28;20084;-70
2022/05/24 03:37:55;;;;;;;18.98;14.75;;;13.90;99.90;;;;;;5035996;28;20076;-72
2022/05/24 03:40:20;;;;;;;22.27;16.05;;;14.20;99.90;;;;;;5039362;28;20091;-69
2022/05/24 03:42:47;;;;;;;21.55;15.13;;;14.00;99.90;;;;;;5032937;28;20092;-71
2022/05/24 03:45:13;;;;;;;20.92;15.30;;;14.00;99.90;;;;;;5041243;28;20033;-69
2022/05/24 03:47:39;;;;;;;24.20;15.70;;;13.80;99.90;;;;;;5031878;28;20048;-68
2022/05/24 03:50:06;;;;;;;21.05;14.25;;;13.90;99.90;;;;;;5037389;28;20033;-69
2022/05/24 03:52:31;;;;;;;26.42;15.13;;;14.10;99.90;;;;;;5034897;28;20512;-69
2022/05/24 03:54:57;;;;;;;18.33;13.38;;;13.70;99.90;;;;;;5025563;28;20044;-71
2022/05/24 04:00:08;;;;;;;14.52;11.90;;;13.80;99.90;;;;;;5030796;28;20558;-68
2022/05/24 04:02:33;;;;;;;18.10;11.23;;;13.90;99.90;;;;;;5039500;28;20033;-71
2022/05/24 04:04:59;;;;;;;16.45;11.02;;;13.70;99.90;;;;;;5018494;28;20053;-69
2022/05/24 04:07:24;;;;;;;15.05;10.75;;;13.70;99.90;;;;;;5044282;28;20056;-72
2022/05/24 04:09:50;;;;;;;11.77;9.95;;;13.80;99.90;;;;;;5038965;28;20538;-71
2022/05/24 04:12:15;;;;;;;14.25;10.00;;;13.80;99.90;;;;;;5031932;28;20034;-72
2022/05/24 04:14:41;;;;;;;16.88;10.88;;;13.60;99.90;;;;;;5023558;28;20064;-73
2022/05/24 04:17:07;;;;;;;16.38;9.93;;;13.60;99.90;;;;;;5037455;28;20032;-69
2022/05/24 04:19:32;;;;;;;13.65;9.50;;;13.70;99.90;;;;;;5046830;28;20037;-69
2022/05/24 04:21:58;;;;;;;16.25;9.90;;;13.70;99.90;;;;;;5036540;28;20048;-71
2022/05/24 04:24:23;;;;;;;16.10;9.80;;;13.70;99.90;;;;;;5042040;28;20116;-71
2022/05/24 04:26:49;;;;;;;15.00;9.90;;;13.70;99.90;;;;;;5042147;28;20503;-69
2022/05/24 04:29:14;;;;;;;16.58;10.77;;;13.50;99.90;;;;;;5025305;28;20122;-69
2022/05/24 04:31:40;;;;;;;20.17;9.73;;;13.70;99.90;;;;;;5041583;28;20034;-69
2022/05/24 04:34:06;;;;;;;13.18;8.25;;;13.70;99.90;;;;;;5045436;28;20044;-69
2022/05/24 04:36:32;;;;;;;14.18;9.50;;;13.60;99.90;;;;;;5043747;28;20029;-72
2022/05/24 04:38:59;;;;;;;16.17;10.75;;;13.80;99.90;;;;;;5044521;28;20056;-69
2022/05/24 04:44:09;;;;;;;13.90;9.38;;;13.80;99.90;;;;;;5040964;28;20076;-72
2022/05/24 04:49:21;;;;;;;19.90;11.15;;;13.80;99.90;;;;;;5038125;28;20056;-69
2022/05/24 04:51:46;;;;;;;17.10;11.60;;;13.80;99.90;;;;;;5042427;28;20045;-69
2022/05/24 04:54:12;;;;;;;16.30;10.15;;;13.80;99.90;;;;;;5023201;28;20043;-69
2022/05/24 04:56:38;;;;;;;22.50;12.00;;;13.80;99.90;;;;;;5039991;28;20042;-69
2022/05/24 04:59:03;;;;;;;17.42;11.82;;;13.90;99.90;;;;;;5040167;28;20037;-69
2022/05/24 05:01:29;;;;;;;16.90;12.25;;;13.80;99.90;;;;;;5039376;28;20036;-69
2022/05/24 05:03:55;;;;;;;18.70;12.18;;;13.90;99.90;;;;;;5043350;28;20044;-69
2022/05/24 05:06:20;;;;;;;19.98;12.35;;;14.00;99.90;;;;;;5046058;28;20033;-69
2022/05/24 05:08:46;;;;;;;22.48;13.30;;;13.90;99.90;;;;;;5044163;28;20091;-69
2022/05/24 05:11:12;;;;;;;15.80;11.57;;;13.90;99.90;;;;;;5033217;28;20061;-69
2022/05/24 05:13:38;;;;;;;17.30;11.65;;;14.00;99.90;;;;;;5044710;28;20499;-70
2022/05/24 05:16:03;;;;;;;19.95;12.00;;;14.10;99.90;;;;;;5022568;28;20080;-69
2022/05/24 05:18:29;;;;;;;18.83;12.63;;;14.20;99.90;;;;;;5049227;28;20095;-69
2022/05/24 05:20:55;;;;;;;19.33;12.43;;;14.00;99.90;;;;;;5022127;28;20038;-69
2022/05/24 05:23:20;;;;;;;16.83;12.65;;;13.90;99.90;;;;;;5038765;28;20037;-74
2022/05/24 05:25:47;;;;;;;19.40;12.48;;;13.90;99.90;;;;;;5042813;28;20102;-69
2022/05/24 05:28:14;;;;;;;23.58;14.02;;;14.00;99.90;;;;;;5042829;28;20041;-70
2022/05/24 05:33:24;;;;;;;22.65;12.30;;;13.90;99.90;;;;;;5043157;28;20044;-69
2022/05/24 05:35:50;;;;;;;22.27;14.57;;;14.00;99.90;;;;;;5040774;28;20033;-69
2022/05/24 05:38:16;;;;;;;16.25;10.98;;;13.90;99.90;;;;;;5043647;28;20121;-69
2022/05/24 05:40:42;;;;;;;18.63;11.75;;;13.80;99.90;;;;;;5023584;28;20048;-69
2022/05/24 05:43:08;;;;;;;22.70;14.05;;;13.90;99.90;;;;;;5040040;28;20034;-70
2022/05/24 05:45:33;;;;;;;26.20;13.90;;;13.90;99.90;;;;;;5041234;28;20033;-72
2022/05/24 05:47:59;;;;;;;22.20;13.02;;;14.10;99.90;;;;;;5045760;28;20049;-69
2022/05/24 05:50:25;;;;;;;20.42;12.02;;;14.00;99.90;;;;;;5029364;28;20029;-69
2022/05/24 05:52:51;;;;;;;18.55;12.18;;;14.00;99.90;;;;;;5035295;28;20118;-69
2022/05/24 05:55:19;;;;;;;15.95;12.00;;;14.00;99.90;;;;;;5002547;28;20479;-71
2022/05/24 05:57:45;;;;;;;26.52;13.43;;;14.00;99.90;;;;;;5014736;28;20111;-70
2022/05/24 06:00:13;;;;;;;20.65;12.93;;;13.90;99.90;;;;;;5036820;28;20048;-71
2022/05/24 06:02:39;;;;;;;17.75;9.98;;;14.10;99.90;;;;;;5030336;28;20073;-71
2022/05/24 06:05:05;;;;;;;17.85;9.70;;;14.00;99.90;;;;;;5035510;28;20118;-73
2022/05/24 06:07:32;;;;;;;22.42;11.15;;;14.00;99.90;;;;;;5035837;28;20531;-69
2022/05/24 06:09:58;;;;;;;18.05;10.18;;;14.10;99.90;;;;;;5034833;28;20132;-72
2022/05/24 06:12:24;;;;;;;18.38;8.90;;;14.20;99.90;;;;;;5024419;28;20041;-69
2022/05/24 06:14:50;;;;;;;15.82;8.60;;;14.10;99.90;;;;;;5014576;28;20052;-69
2022/05/24 06:17:16;;;;;;;13.52;7.93;;;14.00;99.90;;;;;;5018157;28;20111;-69
2022/05/24 06:19:43;;;;;;;13.02;8.57;;;14.00;99.90;;;;;;5017835;28;20045;-71
2022/05/24 06:22:09;;;;;;;18.10;8.32;;;14.10;99.90;;;;;;5012271;28;20049;-70
2022/05/24 06:24:35;;;;;;;12.80;7.30;;;14.30;99.90;;;;;;5034280;28;20442;-70
2022/05/24 06:27:02;;;;;;;20.25;7.85;;;14.20;99.90;;;;;;5029660;28;20145;-72
2022/05/24 06:29:30;;;;;;;15.98;6.97;;;14.10;99.90;;;;;;5032155;28;20139;-70
2022/05/24 06:31:56;;;;;;;14.05;6.90;;;14.30;99.90;;;;;;5034017;28;20134;-70
2022/05/24 06:34:21;;;;;;;15.55;6.22;;;14.40;99.90;;;;;;5016268;28;20060;-73
2022/05/24 06:36:47;;;;;;;13.85;5.80;;;14.40;99.90;;;;;;5031155;28;20524;-69
2022/05/24 06:39:13;;;;;;;14.00;5.60;;;14.50;99.90;;;;;;5009993;28;20605;-70
2022/05/24 06:41:38;;;;;;;8.75;4.63;;;14.40;99.90;;;;;;5033439;28;20047;-69
2022/05/24 06:44:04;;;;;;;7.95;5.05;;;14.30;99.90;;;;;;5032847;28;20114;-69
2022/05/24 06:46:31;;;;;;;9.80;4.72;;;14.50;99.90;;;;;;5039624;28;20124;-69
2022/05/24 06:48:57;;;;;;;6.80;3.95;;;14.50;99.90;;;;;;5022944;28;20033;-69
2022/05/24 06:51:23;;;;;;;7.88;4.53;;;14.30;99.90;;;;;;5007990;28;20061;-69
2022/05/24 06:53:49;;;;;;;9.73;4.95;;;14.50;99.90;;;;;;5019855;28;20124;-70
2022/05/24 06:56:16;;;;;;;10.02;5.40;;;14.30;99.90;;;;;;5040636;28;20033;-69
2022/05/24 06:58:41;;;;;;;9.63;4.82;;;14.80;99.90;;;;;;5024006;28;20049;-69
2022/05/24 07:03:53;;;;;;;8.75;5.00;;;14.60;99.90;;;;;;5037483;28;20052;-69
2022/05/24 07:06:19;;;;;;;8.55;5.25;;;14.60;99.90;;;;;;5036164;28;20041;-70
2022/05/24 07:08:46;;;;;;;9.80;5.32;;;14.50;99.90;;;;;;5036084;28;20091;-69
2022/05/24 07:11:14;;;;;;;9.77;5.60;;;14.60;99.90;;;;;;5014920;28;20041;-69
2022/05/24 07:13:39;;;;;;;11.27;6.10;;;14.50;99.90;;;;;;5041218;28;20037;-70
2022/05/24 07:16:09;;;;;;;12.43;5.28;;;14.50;99.90;;;;;;5036311;28;20040;-69
2022/05/24 07:18:36;;;;;;;15.77;6.57;;;14.50;99.90;;;;;;5022717;28;20103;-70
2022/05/24 07:21:04;;;;;;;10.93;6.45;;;14.30;99.90;;;;;;5040215;28;20041;-70
2022/05/24 07:23:32;;;;;;;10.10;5.43;;;14.40;99.90;;;;;;5035984;28;20552;-70
2022/05/24 07:26:09;;;;;;;9.13;5.65;;;14.30;99.90;;;;;;5037291;28;20047;-69
2022/05/24 07:28:36;;;;;;;10.63;5.53;;;14.30;99.90;;;;;;5026468;28;20120;-70
2022/05/24 07:31:02;;;;;;;15.35;6.35;;;14.70;99.90;;;;;;5032808;28;20223;-70
2022/05/24 07:33:27;;;;;;;9.40;5.38;;;14.70;99.90;;;;;;5034638;28;20080;-70
2022/05/24 07:35:53;;;;;;;9.52;5.50;;;14.50;99.90;;;;;;5026786;28;20515;-70
2022/05/24 07:38:19;;;;;;;11.43;5.30;;;14.80;99.90;;;;;;5037517;28;20043;-70
2022/05/24 07:46:14;;;;;;;8.18;4.75;;;14.90;99.90;;;;;;5040095;28;20044;-69
2022/05/24 07:48:41;;;;;;;9.15;4.65;;;14.80;99.90;;;;;;5020518;28;20072;-72
2022/05/24 07:51:07;;;;;;;9.75;4.95;;;14.90;99.90;;;;;;5035753;28;20527;-72
2022/05/24 07:53:34;;;;;;;8.82;4.57;;;14.90;99.90;;;;;;5040015;28;20041;-70
2022/05/24 07:56:00;;;;;;;8.70;4.50;;;15.10;99.90;;;;;;5038411;28;20197;-71
2022/05/24 07:58:26;;;;;;;9.10;5.05;;;15.10;99.90;;;;;;5032010;28;20052;-70
2022/05/24 08:00:54;;;;;;;11.25;5.15;;;15.00;99.90;;;;;;5041510;28;20045;-70
2022/05/24 08:03:20;;;;;;;12.80;5.32;;;15.00;99.90;;;;;;5022102;28;20467;-70
2022/05/24 08:05:45;;;;;;;8.60;5.07;;;14.90;99.90;;;;;;5031857;28;20128;-71
2022/05/24 08:08:11;;;;;;;11.65;4.85;;;15.00;99.90;;;;;;5034824;28;20033;-70
2022/05/24 08:10:38;;;;;;;10.15;5.75;;;15.00;99.90;;;;;;5016884;28;20108;-70
2022/05/24 08:13:06;;;;;;;12.13;5.93;;;15.20;99.90;;;;;;4992512;28;20081;-69
2022/05/24 08:15:32;;;;;;;11.27;5.85;;;15.20;99.90;;;;;;5009623;28;20492;-71
2022/05/24 08:17:58;;;;;;;11.90;5.65;;;15.30;99.90;;;;;;5010232;28;20045;-71
2022/05/24 08:20:25;;;;;;;10.15;6.93;;;15.80;99.90;;;;;;5009888;28;20045;-71
2022/05/24 08:22:50;;;;;;;11.20;6.10;;;15.40;99.90;;;;;;5010155;28;20081;-71
2022/05/24 08:25:17;;;;;;;11.55;6.85;;;15.80;99.90;;;;;;5030037;28;20740;-70
2022/05/24 08:27:43;;;;;;;13.52;6.50;;;15.90;99.90;;;;;;5029725;28;20124;-70
2022/05/24 08:30:12;;;;;;;11.55;5.63;;;16.00;99.90;;;;;;5012710;28;20133;-70
2022/05/24 08:32:38;;;;;;;9.13;5.25;;;15.80;99.90;;;;;;5013501;28;20048;-70
2022/05/24 08:35:04;;;;;;;12.10;5.97;;;15.40;99.90;;;;;;5030984;28;20048;-70
2022/05/24 08:37:30;;;;;;;11.05;4.38;;;15.40;99.90;;;;;;5013618;28;20087;-70
2022/05/24 08:39:58;;;;;;;8.98;3.95;;;15.20;99.90;;;;;;5012663;28;20045;-70
2022/05/24 08:42:36;;;;;;;6.88;2.10;;;15.10;99.90;;;;;;5030000;28;20037;-73
2022/05/24 08:48:25;;;;;;;3.72;1.70;;;14.20;99.90;;;;;;5029843;28;20526;-73
2022/05/24 08:50:57;;;;;;;4.78;1.48;;;13.90;99.90;;;;;;5012860;28;20064;-73
2022/05/24 08:53:40;;;;;;;3.80;1.42;;;13.60;99.90;;;;;;5031335;28;20072;-72
2022/05/24 08:56:08;;;;;;;2.47;1.50;;;13.70;99.90;;;;;;5029870;28;20116;-70
2022/05/24 08:58:42;;;;;;;5.57;1.50;;;13.90;99.90;;;;;;5029941;28;20272;-70
2022/05/24 09:01:14;;;;;;;;;;;13.90;99.90;;;;;;5029517;28;20053;-70
2022/05/24 09:03:40;;;;;;;4.72;1.90;;;;;;;;;;5031491;28;19917;-70
2022/05/24 09:06:14;;;;;;;2.90;2.03;;;14.10;99.90;;;;;;5016912;28;20042;-73
2022/05/24 09:09:01;;;;;;;3.65;2.10;;;14.00;99.90;;;;;;5033101;28;20107;-74
2022/05/24 09:11:50;;;;;;;5.55;1.80;;;14.30;99.90;;;;;;5034629;28;20073;-73
2022/05/24 09:14:48;;;;;;;2.78;1.90;;;14.40;99.90;;;;;;5033154;28;20029;-73
2022/05/24 09:17:43;;;;;;;3.70;1.77;;;14.40;99.90;;;;;;5016311;28;20056;-73
2022/05/24 09:20:29;;;;;;;2.88;1.58;;;14.60;99.90;;;;;;5032583;28;20167;-70
2022/05/24 09:23:18;;;;;;;4.07;1.75;;;15.00;99.90;;;;;;5033054;28;20041;-70
2022/05/24 09:25:57;;;;;;;5.55;2.10;;;15.10;99.90;;;;;;5034273;28;20044;-70
2022/05/24 09:28:45;;;;;;;4.10;1.90;;;15.70;99.90;;;;;;5032582;28;20495;-73
2022/05/24 09:31:23;;;;;;;4.72;2.40;;;15.30;99.90;;;;;;5030253;28;20040;-71
2022/05/24 09:33:54;;;;;;;4.25;2.20;;;15.40;99.90;;;;;;5021776;28;20029;-70
2022/05/24 09:36:39;;;;;;;4.72;2.90;;;15.50;99.90;;;;;;5032574;28;20438;-71
2022/05/24 09:39:24;;;;;;;3.17;2.45;;;16.20;99.90;;;;;;5033575;28;20442;-71
2022/05/24 09:42:00;;;;;;;5.05;2.65;;;16.20;99.90;;;;;;5032535;28;20068;-73
2022/05/24 09:44:29;;;;;;;4.00;2.40;;;16.10;99.90;;;;;;5033815;28;20075;-71
2022/05/24 09:46:55;;;;;;;3.75;2.40;;;15.90;99.90;;;;;;5033861;28;20044;-71
2022/05/24 09:49:25;;;;;;;3.83;2.30;;;16.00;99.90;;;;;;5015241;28;20041;-72
2022/05/24 09:51:57;;;;;;;3.17;2.17;;;16.30;99.90;;;;;;5032653;28;20558;-71
2022/05/24 09:54:26;;;;;;;5.05;2.83;;;16.70;99.90;;;;;;5032225;28;20030;-71
2022/05/24 09:57:11;;;;;;;4.72;2.30;;;16.80;99.90;;;;;;5033707;28;20084;-71
2022/05/24 09:59:41;;;;;;;6.47;2.53;;;16.70;99.90;;;;;;5032773;28;20120;-71
2022/05/24 10:02:22;;;;;;;4.63;2.47;;;16.20;99.90;;;;;;5033376;28;20043;-71
2022/05/24 10:04:48;;;;;;;7.28;2.53;;;15.90;99.90;;;;;;5030529;28;20026;-71
2022/05/24 10:07:29;;;;;;;2.95;2.53;;;15.80;99.90;;;;;;5023398;28;20099;-71
2022/05/24 10:10:20;;;;;;;6.80;2.90;;;15.50;99.90;;;;;;5013775;28;20125;-72
2022/05/24 10:13:00;;;;;;;3.35;2.50;;;16.10;99.90;;;;;;5031660;28;20048;-72
2022/05/24 10:16:03;;;;;;;4.00;2.13;;;16.40;99.90;;;;;;5030770;28;20040;-71
2022/05/24 10:18:45;;;;;;;2.35;1.80;;;16.00;99.90;;;;;;5031826;28;20049;-71
2022/05/24 10:21:34;;;;;;;5.25;1.88;;;16.50;99.90;;;;;;5026247;28;20442;-71
2022/05/24 10:24:24;;;;;;;6.55;3.05;;;16.60;99.90;;;;;;5022173;28;20068;-71
2022/05/24 10:27:13;;;;;;;4.18;2.50;;;16.30;99.90;;;;;;5031859;28;20048;-71
2022/05/24 10:29:53;;;;;;;10.77;3.50;;;16.30;99.90;;;;;;5025751;28;20045;-72
2022/05/24 10:39:08;;;;;;;4.30;2.30;;;15.50;99.90;;;;;;4994867;28;20046;-71
2022/05/24 10:42:00;;;;;;;4.13;2.63;;;15.30;99.90;;;;;;5043359;28;20118;-72
2022/05/24 10:44:32;;;;;;;3.22;2.92;;;15.40;99.90;;;;;;5037713;28;20037;-72
2022/05/24 10:47:06;;;;;;;3.55;2.70;;;15.00;99.90;;;;;;5028828;28;20048;-72
2022/05/24 10:49:41;;;;;;;5.55;2.58;;;14.80;99.90;;;;;;5032446;28;20530;-71
2022/05/24 10:52:39;;;;;;;6.72;2.75;;;14.40;99.90;;;;;;5025316;28;20076;-73
2022/05/24 10:55:12;;;;;;;5.88;2.45;;;14.00;99.90;;;;;;5028422;28;20466;-72
2022/05/24 10:57:43;;;;;;;;;;;14.20;99.90;;;;;;5027611;28;20038;-71
2022/05/24 11:00:13;;;;;;;3.45;2.50;;;;;;;;;;5027500;28;19917;-72
2022/05/24 11:02:57;;;;;;;6.47;2.28;;;14.10;99.90;;;;;;5030257;28;20077;-72
2022/05/24 11:05:27;;;;;;;2.72;1.85;;;14.70;99.90;;;;;;5016561;28;20128;-73
2022/05/24 11:08:19;;;;;;;3.88;1.98;;;15.00;99.90;;;;;;5018727;28;20122;-71
2022/05/24 11:10:48;;;;;;;5.72;1.83;;;15.40;99.90;;;;;;5018774;28;20052;-72
2022/05/24 11:13:22;;;;;;;4.35;1.80;;;15.60;99.90;;;;;;5029833;28;20049;-71
2022/05/24 11:15:57;;;;;;;4.32;1.73;;;15.60;99.90;;;;;;5036711;28;20398;-71
2022/05/24 11:18:25;;;;;;;4.30;1.20;;;15.90;99.90;;;;;;5027859;28;20063;-71
2022/05/24 11:20:59;;;;;;;2.13;1.55;;;15.70;99.90;;;;;;5042089;28;20115;-70
2022/05/24 11:23:35;;;;;;;5.15;1.48;;;15.40;99.90;;;;;;5017293;28;20033;-71
2022/05/24 11:26:11;;;;;;;2.67;1.33;;;15.30;99.90;;;;;;5045481;28;20522;-71
2022/05/24 11:28:46;;;;;;;3.78;1.33;;;15.50;99.90;;;;;;5033257;28;20091;-71
2022/05/24 11:31:26;;;;;;;5.53;1.30;;;15.50;99.90;;;;;;5038685;28;20049;-71
2022/05/24 11:33:52;;;;;;;5.10;1.65;;;15.20;99.90;;;;;;5034432;28;20037;-71
2022/05/24 11:36:34;;;;;;;8.05;1.98;;;15.10;99.90;;;;;;5041427;28;20029;-71
2022/05/24 11:39:29;;;;;;;3.87;1.10;;;15.10;99.90;;;;;;5030146;28;20041;-71
2022/05/24 11:42:33;;;;;;;3.00;1.15;;;14.80;99.90;;;;;;5023081;28;20053;-72
2022/05/24 11:45:20;;;;;;;4.72;1.30;;;15.00;99.90;;;;;;5017436;28;20116;-72
2022/05/24 11:47:46;;;;;;;4.95;1.65;;;15.10;99.90;;;;;;5039384;28;20037;-72
2022/05/24 11:50:30;;;;;;;3.40;1.08;;;15.60;99.90;;;;;;5017308;28;20110;-72
2022/05/24 11:53:15;;;;;;;3.45;1.45;;;15.80;99.90;;;;;;5034138;28;20037;-72
2022/05/24 11:55:53;;;;;;;2.47;1.67;;;15.70;99.90;;;;;;5040632;28;20033;-72
2022/05/24 11:58:19;;;;;;;5.93;1.40;;;15.70;99.90;;;;;;5037345;28;20033;-72
2022/05/24 12:00:56;;;;;;;4.60;1.15;;;15.80;99.90;;;;;;5027950;28;20072;-71
2022/05/24 12:09:26;;;;;;;5.30;1.27;;;15.00;99.90;;;;;;5015784;28;20047;-71
2022/05/24 12:12:30;;;;;;;5.50;1.48;;;15.00;99.90;;;;;;5036883;28;20091;-71
2022/05/24 12:15:22;;;;;;;3.78;1.40;;;15.10;99.90;;;;;;5016758;28;20042;-71
2022/05/24 12:18:11;;;;;;;3.58;1.02;;;15.70;99.90;;;;;;5041124;28;20048;-71
2022/05/24 12:20:37;;;;;;;8.45;1.40;;;15.50;99.90;;;;;;5040587;28;20106;-71
2022/05/24 12:23:14;;;;;;;4.45;1.08;;;15.70;99.90;;;;;;5018172;28;20092;-71
2022/05/24 12:25:59;;;;;;;5.93;1.48;;;15.60;99.90;;;;;;5030255;28;20042;-72
2022/05/24 12:28:34;;;;;;;5.53;1.45;;;15.60;99.90;;;;;;5046207;28;20186;-71
2022/05/24 12:31:01;;;;;;;3.35;0.95;;;15.40;99.90;;;;;;5042823;28;20044;-72
2022/05/24 12:33:40;;;;;;;1.92;1.10;;;15.40;99.90;;;;;;5036566;28;20030;-71
2022/05/24 12:36:06;;;;;;;1.15;0.90;;;15.60;99.90;;;;;;5035570;28;20507;-73
2022/05/24 12:38:33;;;;;;;6.28;1.52;;;15.40;99.90;;;;;;5041174;28;20052;-72
2022/05/24 12:41:09;;;;;;;5.60;1.30;;;15.60;99.90;;;;;;5043625;28;20084;-74
2022/05/24 12:43:35;;;;;;;4.95;1.40;;;16.00;99.90;;;;;;5024083;28;20045;-72
2022/05/24 12:46:01;;;;;;;7.43;1.40;;;16.10;99.90;;;;;;5047922;28;20043;-71
2022/05/24 12:48:34;;;;;;;4.18;1.38;;;16.10;99.90;;;;;;5035347;28;20041;-71
2022/05/24 12:51:01;;;;;;;;;;;16.90;99.90;;;;;;5038918;28;20815;-71
2022/05/24 12:53:27;;;;;;;3.08;1.00;;;16.00;99.90;;;;;;5033096;28;19921;-72
2022/05/24 12:56:01;;;;;;;1.60;0.90;;;16.40;99.90;;;;;;5040669;28;20643;-71
2022/05/24 12:58:48;;;;;;;4.38;1.60;;;16.40;99.90;;;;;;5046320;28;20056;-72
2022/05/24 13:01:29;;;;;;;3.53;1.20;;;15.90;99.90;;;;;;5036934;28;20488;-74
2022/05/24 13:04:06;;;;;;;3.35;1.67;;;16.10;99.90;;;;;;5039839;28;20060;-72
2022/05/24 13:06:35;;;;;;;5.15;1.80;;;16.00;99.90;;;;;;5028432;28;20041;-72
2022/05/24 13:09:21;;;;;;;5.45;2.00;;;16.20;99.90;;;;;;5039364;28;20040;-72
2022/05/24 13:11:59;;;;;;;3.17;2.22;;;16.30;99.90;;;;;;5038361;28;20033;-72
2022/05/24 13:14:45;;;;;;;3.28;2.05;;;16.20;99.90;;;;;;5041412;28;20037;-71
2022/05/24 13:17:12;;;;;;;7.07;2.15;;;16.50;99.90;;;;;;5037239;28;20086;-75
2022/05/24 13:20:06;;;;;;;5.45;2.65;;;16.40;99.90;;;;;;5042701;28;20123;-72
2022/05/24 13:22:52;;;;;;;4.00;2.28;;;16.40;99.90;;;;;;5020151;28;20403;-71
2022/05/24 13:25:27;;;;;;;4.00;2.10;;;16.50;99.90;;;;;;5005126;28;20458;-72
2022/05/24 13:28:00;;;;;;;2.90;1.92;;;18.20;99.90;;;;;;5040005;28;20657;-72
2022/05/24 13:33:37;;;;;;;7.47;2.30;;;16.30;99.90;;;;;;5040412;28;20047;-71
2022/05/24 13:36:12;;;;;;;4.30;2.10;;;16.50;99.90;;;;;;5043584;28;20503;-72
2022/05/24 13:38:40;;;;;;;3.83;2.40;;;16.30;99.90;;;;;;5038040;28;20046;-72
2022/05/24 13:41:08;;;;;;;4.70;2.65;;;16.50;99.90;;;;;;5046231;28;20041;-73
2022/05/24 13:43:44;;;;;;;6.07;2.83;;;16.90;99.90;;;;;;5039434;28;20076;-74
2022/05/24 13:46:19;;;;;;;6.47;2.95;;;17.00;99.90;;;;;;5042293;28;20041;-72
2022/05/24 13:48:54;;;;;;;11.20;3.65;;;17.10;99.90;;;;;;5035004;28;20041;-72
2022/05/24 13:51:33;;;;;;;6.25;3.40;;;16.80;99.90;;;;;;5040318;28;20041;-72
2022/05/24 13:54:01;;;;;;;5.90;2.78;;;16.60;99.90;;;;;;5042018;28;20471;-74